Aktualne dane pomiarowe

Uwaga, wersja testowa! Automatyczne pobieranie danych za pomocą narzędzi lub skryptów to umożliwiających jest zabronione.

Dane meteo z obszaru Polski uzyskane na podstawie depesz SYNOP pobieranych co godzinę z NWS. Najedź myszką na symbol przedstawiony w tabeli, aby uzyskać informacje co do jego znaczenia. Prosimy pamiętać, że to testowa wersja strony, która jeszcze nie jest ukończona. Stworzono również jest krótki FAQ dotyczący korzystania z tej podstrony Anomalie temperatury w chwili obecnej odniesione są do okresu referencyjnego 1951-2016. Okres ten będzie później zmieniony na 1981-2010. Kliknij ikonę aby pobrać plik CSV. Kliknij ikonę aby wygenerować mapę synoptyczną dla danego terminu.

Wybierz Datę:    

        

Kraków-Balice (12566)

Dane terminowe dla wybranej stacji. Kliknij datę, aby otrzymać dane z tego terminu dla wszystkich stacji.

TemperaturaZachmurzenieWiatrCiśnienieOpadyPogoda
 Data t td wb tx tn tg rh  Nt Nl Cl Cm Ch ws wd g1 g2 wx mslp ppp ch 24h 12h t ww ww w1 w2  
2019-06-15 23:00:00 23.1 15.9 18.3--- 6430.0wx-wxwx8wx--81012.8 985.0 1.5---------
2019-06-15 22:00:00 22.4 17.3 18.9--- 7320.0wx-wxwx0---01012.4 984.5 0.9---------
2019-06-15 21:00:00 23.9 17.4 19.5--- 6725.0wx-wx0---01011.7 984.0 0.8---------
2019-06-15 20:00:00 26.1 16.9 20.0--- 5730.0wx-wx1wx--11011.0 983.5 0.2---------
2019-06-15 19:00:00 27.1 17.6 20.8--- 5635.0wx-wx4wx---1011.0 983.6 0.0---------
2019-06-15 18:00:00 29.9 19.3 22.8 33.4 24.5- 5335.0wx-wxwx2wx--21010.3 983.2 -0.7- 0.012------
2019-06-15 17:00:00 31.6 19.3 23.3--- 4840.0wx-wx2wx--21010.3 983.3 -0.9---------
2019-06-15 16:00:00 31.2 19.5 23.3--- 5040.0wx-wx2wx--21010.6 983.6 -1.0---------
2019-06-15 15:00:00 33.0 18.4 23.3--- 4240.0wx-wx2wx--21010.8 983.9 -1.3---------
2019-06-15 14:00:00 33.1 17.7 23.0--- 4040.0wx-wx2wx--21011.1 984.2 -1.6---------
2019-06-15 13:00:00 32.5 17.2 22.5--- 4040.0wx-wx3wx--31011.5 984.6 -1.6---------
2019-06-15 12:00:00 32.4 16.7 22.2--- 3940.0wx-wx3wx--31012.2 985.2 -1.5- 0.06------
2019-06-15 11:00:00 32.2 15.2 21.4--- 3640.0wx-wx2wx--21012.8 985.8 -1.2---------
2019-06-15 10:00:00 31.3 17.6 22.3--- 4430.0wx-wx3wx--31013.3 986.2 -1.2---------
2019-06-15 09:00:00 29.7 20.3 23.3--- 5730.0wx-wx3wx--31013.9 986.7 -1.0---------
2019-06-15 08:00:00 28.0 19.8 22.4--- 6130.0wx-wx3wx--31014.4 987.0 -1.1---------
2019-06-15 07:00:00 26.3 20.2 22.0--- 6920.0wx-wx3wx--31015.0 987.4 -0.8---------
2019-06-15 06:00:00 24.5 20.4 21.6 27.3 19.5 17 7815.0wx-wx3wx--31015.5 987.7 -0.6- 0.012------
2019-06-15 05:00:00 23.0 19.8 20.7--- 8215.0wx-wx1wx--11016.0 988.1 -0.2---------
2019-06-15 04:00:00 21.2 19.1 19.7--- 8815.0wx-wx3wx--31016.3 988.2 -0.2---------
2019-06-15 03:00:00 20.2 18.5 19.0--- 9015.0wx-wx3wx--31016.5 988.3 -0.3---------
2019-06-15 02:00:00 19.8 18.3 18.7--- 9115.0wx-wx3wx--31016.5 988.3 -0.7---------
2019-06-15 01:00:00 20.7 18.1 18.8--- 8520.0wx-3wx--31016.5 988.4 -1.3---------
2019-06-15 00:00:00 21.7 18.9 19.7--- 8420.0wx-1wx--11016.6 988.6 -1.3- 0.06------
2019-06-14 23:00:00 21.6 19.0 19.7--- 8520.0wx-2wx--21017.1 989.0 -1.1---------
2019-06-14 22:00:00 22.5 19.3 20.2--- 8220.0wx-2wx--21017.7 989.7 -0.4---------
2019-06-14 21:00:00 23.1 19.5 20.5--- 8020.0wx-wx2wx--21017.8 989.9 0.2---------
2019-06-14 20:00:00 24.8 19.0 20.8--- 7030.0wx-wxwx2wx--21017.9 990.1 0.5---------
2019-06-14 19:00:00 26.4 19.0 21.3--- 6430.0wx-wxwx2wx--21017.7 990.1 0.1---------
2019-06-14 18:00:00 27.3 19.4 21.9 29.8 21.0- 6240.0wx-wx2wx--21017.2 989.7 0.1- 0.012------
2019-06-14 17:00:00 27.7 18.7 21.6--- 5840.0wxwxwxwx3wx--31017.1 989.6 -0.4---------
2019-06-14 16:00:00 29.4 17.2 21.4--- 4840.0wxwxwxwx3wx--31017.4 990.0 -0.5---------
2019-06-14 15:00:00 29.4 17.9 21.8--- 5040.0wxwxwx3wx--31016.9 989.6 -1.2---------
2019-06-14 14:00:00 29.5 17.7 21.7--- 4940.0wxwxwxwx5wx--51017.3 990.0 -1.0---------
2019-06-14 12:00:00 29.0 18.1 21.8--- 5235.0wxwxwxwx3wx--31018.2 990.8 -0.4- 0.06------
2019-06-14 11:00:00 28.4 18.8 21.9--- 5630.0wxwxwxwx3wx--31018.5 991.0 -0.1---------
2019-06-14 10:00:00 27.8 19.3 22.0--- 6030.0wxwxwxwxwx1wx--11018.6 991.1 0.1---------
2019-06-14 09:00:00 26.3 18.4 21.0--- 6230.0wxwxwxwxwx1wx--11018.9 991.2 0.8---------
2019-06-14 08:00:00 24.7 18.2 20.3--- 6730.0wxwxwxwxwx2wx--21018.9 991.1 1.2---------
2019-06-14 07:00:00 23.1 18.4 19.8--- 7520.0wxwxwxwx1wx--11019.0 991.0 1.6---------
2019-06-14 06:00:00 21.0 19.1 19.6 25.7 19.1 16 8910.0wxwxwxwxwx0---01018.6 990.4 1.2 0.2 0.012------
2019-06-14 05:00:00 20.5 19.0 19.4--- 917.0wxwxwxwxwx1wx--11018.1 989.9 1.7---wx---
2019-06-14 04:00:00 19.9 19.2 19.4--- 964.0wxwxwxwxwx3wx--31017.6 989.4 1.6---wx---
2019-06-14 03:00:00 19.4 18.9 19.0--- 975.0wx-wxwx2wx--21017.5 989.2 1.6---wx---
2019-06-14 02:00:00 20.0 18.7 19.0--- 926.0wx-wxwx1wx--11016.4 988.2 2.3---wx---
2019-06-14 01:00:00 20.6 18.5 19.1--- 8810.0wx-wx3wx--31015.9 987.8 1.0---------
2019-06-14 00:00:00 21.2 18.8 19.5--- 8610.0wx-wx5wx--51015.7 987.6 0.9- 0.06------
1.6 ms

 

Print Friendly, PDF & Email